sensor_id;sensor_type;location;lat;lon;timestamp;pressure;altitude;pressure_sealevel;temperature;humidity
12073;BME280;6098;49.004;8.372;2023-09-12T00:11:26;99873.18;;;23.66;64.63
12073;BME280;6098;49.004;8.372;2023-09-12T00:26:18;99864.64;;;23.48;65.65
12073;BME280;6098;49.004;8.372;2023-09-12T00:41:10;99861.59;;;23.33;65.85
12073;BME280;6098;49.004;8.372;2023-09-12T00:56:02;99851.44;;;23.18;66.63
12073;BME280;6098;49.004;8.372;2023-09-12T01:10:54;99852.51;;;22.94;67.58
12073;BME280;6098;49.004;8.372;2023-09-12T01:40:49;99845.94;;;22.69;68.64
12073;BME280;6098;49.004;8.372;2023-09-12T01:55:43;99846.06;;;22.40;70.80
12073;BME280;6098;49.004;8.372;2023-09-12T02:10:51;99849.05;;;22.18;74.28
12073;BME280;6098;49.004;8.372;2023-09-12T02:25:39;99841.10;;;22.12;75.41
12073;BME280;6098;49.004;8.372;2023-09-12T02:40:31;99838.94;;;21.88;77.27
12073;BME280;6098;49.004;8.372;2023-09-12T02:55:23;99863.69;;;21.77;77.08
12073;BME280;6098;49.004;8.372;2023-09-12T03:10:15;99860.23;;;21.62;76.42
12073;BME280;6098;49.004;8.372;2023-09-12T03:25:08;99845.81;;;21.53;76.60
12073;BME280;6098;49.004;8.372;2023-09-12T03:39:58;99837.20;;;21.44;77.41
12073;BME280;6098;49.004;8.372;2023-09-12T03:54:50;99838.91;;;21.35;78.51
12073;BME280;6098;49.004;8.372;2023-09-12T04:09:43;99839.91;;;21.24;81.23
12073;BME280;6098;49.004;8.372;2023-09-12T04:24:35;99851.96;;;21.35;81.62
12073;BME280;6098;49.004;8.372;2023-09-12T04:39:26;99855.34;;;21.18;83.32
12073;BME280;6098;49.004;8.372;2023-09-12T04:54:18;99863.05;;;21.07;83.96
12073;BME280;6098;49.004;8.372;2023-09-12T05:09:09;99876.73;;;21.00;84.79
12073;BME280;6098;49.004;8.372;2023-09-12T05:24:02;99883.31;;;20.91;85.36
12073;BME280;6098;49.004;8.372;2023-09-12T05:38:56;99892.74;;;20.91;83.74
12073;BME280;6098;49.004;8.372;2023-09-12T05:53:48;99895.97;;;20.85;83.50
12073;BME280;6098;49.004;8.372;2023-09-12T06:08:41;99895.30;;;20.93;82.71
12073;BME280;6098;49.004;8.372;2023-09-12T06:23:33;99918.48;;;21.20;81.81
12073;BME280;6098;49.004;8.372;2023-09-12T06:38:27;99919.91;;;21.49;80.62
12073;BME280;6098;49.004;8.372;2023-09-12T06:53:20;99921.03;;;21.80;76.56
12073;BME280;6098;49.004;8.372;2023-09-12T07:08:12;99929.19;;;22.08;76.06
12073;BME280;6098;49.004;8.372;2023-09-12T07:23:06;99924.30;;;22.45;75.78
12073;BME280;6098;49.004;8.372;2023-09-12T07:37:59;99915.73;;;22.73;73.05
12073;BME280;6098;49.004;8.372;2023-09-12T07:52:53;99933.41;;;23.05;72.01
12073;BME280;6098;49.004;8.372;2023-09-12T08:07:46;99931.53;;;23.51;72.01
12073;BME280;6098;49.004;8.372;2023-09-12T08:22:40;99943.57;;;23.83;70.57
12073;BME280;6098;49.004;8.372;2023-09-12T08:37:33;99949.05;;;24.05;69.50
12073;BME280;6098;49.004;8.372;2023-09-12T08:52:26;99953.19;;;24.13;68.77
12073;BME280;6098;49.004;8.372;2023-09-12T09:07:18;99961.77;;;24.26;68.87
12073;BME280;6098;49.004;8.372;2023-09-12T09:22:10;99949.30;;;24.68;65.84
12073;BME280;6098;49.004;8.372;2023-09-12T09:37:05;99935.28;;;24.81;65.26
12073;BME280;6098;49.004;8.372;2023-09-12T09:51:57;99936.58;;;24.98;62.68
12073;BME280;6098;49.004;8.372;2023-09-12T10:06:50;99936.84;;;25.25;62.45
12073;BME280;6098;49.004;8.372;2023-09-12T10:21:49;99924.63;;;25.55;61.50
12073;BME280;6098;49.004;8.372;2023-09-12T10:36:46;99902.45;;;25.91;60.98
12073;BME280;6098;49.004;8.372;2023-09-12T10:51:44;99895.53;;;26.29;60.61
12073;BME280;6098;49.004;8.372;2023-09-12T11:06:39;99877.30;;;26.74;59.88
12073;BME280;6098;49.004;8.372;2023-09-12T11:21:33;99871.12;;;27.31;56.92
12073;BME280;6098;49.004;8.372;2023-09-12T11:36:29;99860.36;;;27.95;51.47
12073;BME280;6098;49.004;8.372;2023-09-12T11:51:36;99852.94;;;28.52;49.48
12073;BME280;6098;49.004;8.372;2023-09-12T12:06:31;99858.92;;;29.13;48.22
12073;BME280;6098;49.004;8.372;2023-09-12T12:21:25;99851.91;;;29.61;45.65
12073;BME280;6098;49.004;8.372;2023-09-12T12:36:19;99840.20;;;29.96;42.91
12073;BME280;6098;49.004;8.372;2023-09-12T12:51:14;99816.52;;;30.27;42.52
12073;BME280;6098;49.004;8.372;2023-09-12T13:06:07;99802.45;;;30.64;41.36
12073;BME280;6098;49.004;8.372;2023-09-12T13:21:01;99792.88;;;30.98;42.31
12073;BME280;6098;49.004;8.372;2023-09-12T13:35:55;99776.48;;;31.05;41.26
12073;BME280;6098;49.004;8.372;2023-09-12T13:50:47;99763.99;;;31.50;38.79
12073;BME280;6098;49.004;8.372;2023-09-12T14:05:41;99747.53;;;31.37;39.40
12073;BME280;6098;49.004;8.372;2023-09-12T14:20:34;99735.13;;;31.67;37.48
12073;BME280;6098;49.004;8.372;2023-09-12T14:35:30;99741.69;;;32.02;38.23
12073;BME280;6098;49.004;8.372;2023-09-12T14:50:24;99742.30;;;32.23;36.05
12073;BME280;6098;49.004;8.372;2023-09-12T15:05:19;99722.57;;;32.27;34.54
12073;BME280;6098;49.004;8.372;2023-09-12T15:20:11;99702.44;;;31.85;36.19
12073;BME280;6098;49.004;8.372;2023-09-12T15:35:01;99698.58;;;31.14;34.13
12073;BME280;6098;49.004;8.372;2023-09-12T15:49:51;99691.45;;;30.66;37.67
12073;BME280;6098;49.004;8.372;2023-09-12T16:04:52;99701.72;;;30.34;37.86
12073;BME280;6098;49.004;8.372;2023-09-12T16:19:44;99697.38;;;30.04;38.00
12073;BME280;6098;49.004;8.372;2023-09-12T16:34:36;99713.77;;;29.87;38.42
12073;BME280;6098;49.004;8.372;2023-09-12T16:49:28;99697.05;;;29.83;38.24
12073;BME280;6098;49.004;8.372;2023-09-12T17:04:22;99676.91;;;29.77;38.20
12073;BME280;6098;49.004;8.372;2023-09-12T17:19:14;99673.56;;;29.43;41.46
12073;BME280;6098;49.004;8.372;2023-09-12T17:34:08;99664.35;;;28.94;44.67
12073;BME280;6098;49.004;8.372;2023-09-12T17:48:59;99681.20;;;28.55;46.06
12073;BME280;6098;49.004;8.372;2023-09-12T18:03:52;99714.09;;;28.32;45.77
12073;BME280;6098;49.004;8.372;2023-09-12T18:18:45;99751.08;;;28.08;45.01
12073;BME280;6098;49.004;8.372;2023-09-12T18:33:38;99781.59;;;27.92;44.43
12073;BME280;6098;49.004;8.372;2023-09-12T18:48:31;99800.50;;;27.49;47.12
12073;BME280;6098;49.004;8.372;2023-09-12T19:03:22;99825.36;;;27.11;47.98
12073;BME280;6098;49.004;8.372;2023-09-12T19:18:17;99855.31;;;26.92;48.06
12073;BME280;6098;49.004;8.372;2023-09-12T19:33:11;99870.48;;;26.82;46.96
12073;BME280;6098;49.004;8.372;2023-09-12T19:48:05;99881.70;;;26.67;44.91
12073;BME280;6098;49.004;8.372;2023-09-12T20:02:56;99919.10;;;26.49;44.41
12073;BME280;6098;49.004;8.372;2023-09-12T20:17:48;99941.89;;;26.24;45.22
12073;BME280;6098;49.004;8.372;2023-09-12T20:32:41;99952.19;;;25.88;47.13
12073;BME280;6098;49.004;8.372;2023-09-12T20:47:32;99985.55;;;25.60;49.73
12073;BME280;6098;49.004;8.372;2023-09-12T21:02:24;99987.69;;;25.32;52.95
12073;BME280;6098;49.004;8.372;2023-09-12T21:17:15;100010.47;;;25.00;55.93
12073;BME280;6098;49.004;8.372;2023-09-12T21:32:07;100016.35;;;24.79;58.28
12073;BME280;6098;49.004;8.372;2023-09-12T21:46:59;100029.95;;;24.57;60.23
12073;BME280;6098;49.004;8.372;2023-09-12T22:01:50;100050.79;;;24.47;61.22
12073;BME280;6098;49.004;8.372;2023-09-12T22:16:41;100068.72;;;24.31;61.98
12073;BME280;6098;49.004;8.372;2023-09-12T22:31:34;100080.69;;;24.16;63.22
12073;BME280;6098;49.004;8.372;2023-09-12T22:46:27;100075.19;;;24.03;63.98
12073;BME280;6098;49.004;8.372;2023-09-12T23:01:19;100076.55;;;23.89;65.04
12073;BME280;6098;49.004;8.372;2023-09-12T23:16:10;100092.66;;;23.72;65.71
12073;BME280;6098;49.004;8.372;2023-09-12T23:31:03;100101.04;;;23.56;66.18
12073;BME280;6098;49.004;8.372;2023-09-12T23:45:55;100089.05;;;23.45;66.78
